Time;durP1;ratioP1;P1;durP2;ratioP2;P2;SDS_P1;SDS_P2;PMS_P1;PMS_P2;Temp;Humidity;BMP_temperature;BMP_pressure;BME280_temperature;BME280_humidity;BME280_pressure;Samples;Min_cycle;Max_cycle;Signal;HPM_P1;HPM_P2
2021/03/07 00:02:03;;;;;;;10.43;9.43;;;;;;;;;;6248280;22;20435;-64
2021/03/07 00:04:29;;;;;;;10.20;9.20;;;;;;;;;;6247844;22;20761;-64
2021/03/07 00:06:55;;;;;;;9.90;8.98;;;;;;;;;;6275386;22;20356;-65
2021/03/07 00:09:21;;;;;;;11.38;10.27;;;;;;;;;;6275132;22;20356;-65
2021/03/07 00:11:47;;;;;;;11.50;10.17;;;;;;;;;;6248541;22;20367;-65
2021/03/07 00:14:13;;;;;;;11.20;9.90;;;;;;;;;;6275416;22;20360;-65
2021/03/07 00:16:40;;;;;;;9.82;8.88;;;;;;;;;;6275131;22;20396;-65
2021/03/07 00:19:06;;;;;;;10.57;9.50;;;;;;;;;;6248175;22;20740;-65
2021/03/07 00:21:33;;;;;;;10.93;9.82;;;;;;;;;;6275086;22;20756;-65
2021/03/07 00:23:59;;;;;;;15.20;12.95;;;;;;;;;;6248095;22;20423;-65
2021/03/07 00:26:25;;;;;;;14.25;12.77;;;;;;;;;;6275459;22;20352;-65
2021/03/07 00:28:51;;;;;;;13.40;12.00;;;;;;;;;;6275321;22;20368;-65
2021/03/07 00:31:17;;;;;;;13.75;12.35;;;;;;;;;;6275479;22;20412;-65
2021/03/07 00:33:44;;;;;;;14.00;11.82;;;;;;;;;;6275184;22;20774;-66
2021/03/07 00:36:10;;;;;;;12.85;11.55;;;;;;;;;;6248189;22;20395;-65
2021/03/07 00:38:37;;;;;;;13.20;11.80;;;;;;;;;;6275174;22;20426;-65
2021/03/07 00:41:03;;;;;;;14.68;12.30;;;;;;;;;;6248299;22;20812;-65
2021/03/07 00:43:29;;;;;;;11.73;10.53;;;;;;;;;;6247966;22;20708;-65
2021/03/07 00:45:55;;;;;;;10.93;9.82;;;;;;;;;;6275003;22;20365;-65
2021/03/07 00:48:21;;;;;;;10.67;9.57;;;;;;;;;;6275144;22;20353;-65
2021/03/07 00:50:48;;;;;;;11.57;10.38;;;;;;;;;;6248033;22;20364;-65
2021/03/07 00:53:14;;;;;;;11.05;9.95;;;;;;;;;;6275205;22;20352;-65
2021/03/07 00:55:41;;;;;;;11.20;10.05;;;;;;;;;;6274947;22;20386;-65
2021/03/07 00:58:07;;;;;;;10.88;9.88;;;;;;;;;;6275197;22;20427;-64
2021/03/07 01:00:33;;;;;;;10.68;9.50;;;;;;;;;;6275067;22;20447;-65
2021/03/07 01:02:59;;;;;;;11.00;9.90;;;;;;;;;;6274769;22;20380;-64
2021/03/07 01:05:26;;;;;;;10.87;9.77;;;;;;;;;;6275129;22;20430;-65
2021/03/07 01:07:53;;;;;;;10.98;9.93;;;;;;;;;;6274943;22;20826;-64
2021/03/07 01:10:22;;;;;;;10.98;9.88;;;;;;;;;;6275043;22;20364;-65
2021/03/07 01:12:49;;;;;;;10.40;9.40;;;;;;;;;;6274819;22;20949;-65
2021/03/07 01:15:15;;;;;;;9.83;8.83;;;;;;;;;;6274997;22;20360;-65
2021/03/07 01:17:41;;;;;;;11.30;10.20;;;;;;;;;;6247863;22;20441;-65
2021/03/07 01:20:09;;;;;;;10.70;9.60;;;;;;;;;;6247800;22;20375;-65
2021/03/07 01:22:35;;;;;;;11.48;10.27;;;;;;;;;;6274846;22;20376;-65
2021/03/07 01:25:03;;;;;;;11.05;9.95;;;;;;;;;;6274954;22;20681;-66
2021/03/07 01:27:29;;;;;;;14.10;12.47;;;;;;;;;;6248657;22;20431;-65
2021/03/07 01:29:55;;;;;;;14.20;12.65;;;;;;;;;;6249859;22;20364;-65
2021/03/07 01:32:21;;;;;;;14.55;12.45;;;;;;;;;;6249226;22;20371;-65
2021/03/07 01:34:47;;;;;;;12.45;11.23;;;;;;;;;;6276731;22;20361;-65
2021/03/07 01:37:13;;;;;;;12.23;10.93;;;;;;;;;;6276675;22;20356;-65
2021/03/07 01:39:40;;;;;;;13.45;12.05;;;;;;;;;;6276840;22;20352;-64
2021/03/07 01:42:11;;;;;;;12.68;11.18;;;;;;;;;;6276663;22;20357;-65
2021/03/07 01:44:37;;;;;;;12.98;11.65;;;;;;;;;;6276732;22;20379;-64
2021/03/07 01:47:04;;;;;;;12.05;10.75;;;;;;;;;;6276570;22;20366;-65
2021/03/07 01:49:30;;;;;;;12.75;11.45;;;;;;;;;;6249703;22;20356;-65
2021/03/07 01:51:56;;;;;;;13.07;11.57;;;;;;;;;;6248838;22;20402;-66
2021/03/07 01:54:23;;;;;;;13.77;12.38;;;;;;;;;;6276573;22;20410;-64
2021/03/07 01:56:50;;;;;;;12.30;11.05;;;;;;;;;;6276735;22;20352;-65
2021/03/07 01:59:19;;;;;;;12.27;11.05;;;;;;;;;;6249252;22;20396;-65
2021/03/07 02:01:46;;;;;;;13.10;11.73;;;;;;;;;;6274538;22;20443;-66
2021/03/07 02:04:12;;;;;;;12.40;11.10;;;;;;;;;;6243872;22;20385;-65
2021/03/07 02:06:38;;;;;;;12.27;10.90;;;;;;;;;;6245628;23;20437;-65
2021/03/07 02:09:05;;;;;;;11.80;10.60;;;;;;;;;;6245798;23;20441;-64
2021/03/07 02:11:31;;;;;;;12.30;11.10;;;;;;;;;;6245623;23;20408;-65
2021/03/07 02:13:58;;;;;;;11.95;10.85;;;;;;;;;;6246053;23;20358;-65
2021/03/07 02:16:25;;;;;;;11.82;10.63;;;;;;;;;;6245594;23;20365;-65
2021/03/07 02:18:52;;;;;;;12.90;11.57;;;;;;;;;;6245740;23;20362;-65
2021/03/07 02:21:20;;;;;;;14.57;12.95;;;;;;;;;;6245667;23;20362;-64
2021/03/07 02:23:56;;;;;;;13.60;11.68;;;;;;;;;;6245699;23;20378;-64
2021/03/07 02:26:23;;;;;;;13.40;12.07;;;;;;;;;;6218810;23;20366;-65
2021/03/07 02:28:49;;;;;;;12.80;11.20;;;;;;;;;;6245689;23;20358;-65
2021/03/07 02:31:17;;;;;;;13.82;12.00;;;;;;;;;;6245539;23;20386;-67
2021/03/07 02:33:43;;;;;;;13.05;11.75;;;;;;;;;;6245608;23;20405;-64
2021/03/07 02:36:11;;;;;;;13.05;11.70;;;;;;;;;;6245610;23;20357;-65
2021/03/07 02:38:39;;;;;;;12.77;11.48;;;;;;;;;;6218135;23;20366;-65
2021/03/07 02:41:07;;;;;;;12.35;11.15;;;;;;;;;;6245653;23;20945;-65
2021/03/07 02:43:37;;;;;;;13.77;12.43;;;;;;;;;;6245282;23;20439;-65
2021/03/07 02:46:04;;;;;;;12.95;11.65;;;;;;;;;;6245655;23;20358;-65
2021/03/07 02:48:30;;;;;;;12.68;11.30;;;;;;;;;;6245447;23;20360;-65
2021/03/07 02:50:58;;;;;;;12.85;11.55;;;;;;;;;;6245552;23;20457;-64
2021/03/07 02:53:25;;;;;;;12.88;11.50;;;;;;;;;;6245550;23;20810;-65
2021/03/07 02:55:54;;;;;;;12.35;11.15;;;;;;;;;;6245391;23;20397;-65
2021/03/07 02:58:23;;;;;;;13.07;11.75;;;;;;;;;;6245439;23;20362;-65
2021/03/07 03:00:51;;;;;;;13.80;12.40;;;;;;;;;;6245334;23;20385;-65
2021/03/07 03:03:18;;;;;;;14.05;12.65;;;;;;;;;;6248535;22;20447;-65
2021/03/07 03:05:44;;;;;;;17.93;14.93;;;;;;;;;;6248856;22;20828;-65
2021/03/07 03:08:10;;;;;;;17.33;14.50;;;;;;;;;;6276152;22;20368;-64
2021/03/07 03:10:37;;;;;;;15.63;13.93;;;;;;;;;;6275859;22;20352;-65
2021/03/07 03:13:04;;;;;;;19.02;17.02;;;;;;;;;;6276115;22;20374;-64
2021/03/07 03:15:31;;;;;;;15.60;13.88;;;;;;;;;;6275889;22;20839;-65
2021/03/07 03:17:58;;;;;;;15.38;13.77;;;;;;;;;;6275780;22;20362;-65
2021/03/07 03:20:26;;;;;;;15.05;13.45;;;;;;;;;;6248974;22;20850;-65
2021/03/07 03:22:53;;;;;;;15.02;13.38;;;;;;;;;;6275220;22;20376;-65
2021/03/07 03:25:19;;;;;;;14.53;13.03;;;;;;;;;;6275703;22;20401;-65
2021/03/07 03:27:45;;;;;;;15.00;13.50;;;;;;;;;;6275736;22;20843;-65
2021/03/07 03:30:13;;;;;;;15.73;14.13;;;;;;;;;;6275949;22;20439;-65
2021/03/07 03:32:41;;;;;;;15.13;13.60;;;;;;;;;;6275559;22;20393;-67
2021/03/07 03:35:08;;;;;;;15.43;13.82;;;;;;;;;;6275740;22;20448;-65
2021/03/07 03:37:35;;;;;;;15.70;14.10;;;;;;;;;;6275720;22;20363;-65
2021/03/07 03:40:01;;;;;;;15.85;14.27;;;;;;;;;;6275455;22;20360;-65
2021/03/07 03:42:28;;;;;;;15.82;14.07;;;;;;;;;;6275790;22;20896;-64
2021/03/07 03:44:55;;;;;;;16.90;15.10;;;;;;;;;;6275868;22;20413;-65
2021/03/07 03:47:21;;;;;;;15.45;13.73;;;;;;;;;;6248478;22;20409;-65
2021/03/07 03:49:53;;;;;;;15.48;13.85;;;;;;;;;;6276597;22;20819;-71
2021/03/07 03:52:20;;;;;;;15.55;13.95;;;;;;;;;;6275562;22;20368;-72
2021/03/07 03:54:49;;;;;;;16.00;14.23;;;;;;;;;;6275734;22;20875;-71
2021/03/07 03:57:17;;;;;;;16.13;14.45;;;;;;;;;;6275546;22;20422;-72
2021/03/07 03:59:43;;;;;;;15.70;14.10;;;;;;;;;;6275731;22;20363;-71
2021/03/07 04:02:11;;;;;;;15.13;13.63;;;;;;;;;;6275312;22;20446;-71
2021/03/07 04:04:39;;;;;;;14.85;13.35;;;;;;;;;;6248126;22;20376;-72
2021/03/07 04:07:06;;;;;;;15.97;14.30;;;;;;;;;;6248260;22;20367;-71
2021/03/07 04:09:32;;;;;;;15.98;14.13;;;;;;;;;;6275354;22;20367;-72
2021/03/07 04:11:58;;;;;;;16.98;15.18;;;;;;;;;;6275575;22;20740;-72
2021/03/07 04:14:24;;;;;;;17.08;14.90;;;;;;;;;;6275484;22;20352;-71
2021/03/07 04:16:52;;;;;;;15.27;13.57;;;;;;;;;;6275401;22;20439;-71
2021/03/07 04:19:18;;;;;;;15.98;14.27;;;;;;;;;;6275305;22;20450;-71
2021/03/07 04:21:44;;;;;;;17.10;15.23;;;;;;;;;;6275582;22;20391;-72
2021/03/07 04:24:12;;;;;;;18.52;16.38;;;;;;;;;;6274825;22;20542;-71
2021/03/07 04:26:38;;;;;;;19.55;17.45;;;;;;;;;;6275362;22;20386;-72
2021/03/07 04:29:05;;;;;;;17.57;15.73;;;;;;;;;;6275464;22;20901;-72
2021/03/07 04:31:31;;;;;;;17.75;15.85;;;;;;;;;;6275044;22;20371;-72
2021/03/07 04:33:58;;;;;;;18.13;16.20;;;;;;;;;;6248268;22;20445;-72
2021/03/07 04:36:24;;;;;;;18.80;16.80;;;;;;;;;;6248008;22;20406;-71
2021/03/07 04:38:51;;;;;;;17.90;15.93;;;;;;;;;;6248125;22;20356;-72
2021/03/07 04:41:18;;;;;;;21.33;17.92;;;;;;;;;;6275097;22;20360;-72
2021/03/07 04:43:48;;;;;;;19.50;17.37;;;;;;;;;;6275291;22;20463;-72
2021/03/07 04:46:14;;;;;;;20.90;17.97;;;;;;;;;;6275308;22;20352;-71
2021/03/07 04:48:40;;;;;;;20.55;18.45;;;;;;;;;;6248028;22;20365;-72
2021/03/07 04:51:06;;;;;;;20.83;18.63;;;;;;;;;;6275235;22;20704;-71
2021/03/07 04:53:32;;;;;;;20.52;18.08;;;;;;;;;;6275066;22;20352;-72
2021/03/07 04:55:59;;;;;;;19.85;17.70;;;;;;;;;;6248151;22;20490;-72
2021/03/07 04:58:26;;;;;;;21.80;19.00;;;;;;;;;;6275168;22;20379;-72
2021/03/07 05:00:52;;;;;;;20.45;17.58;;;;;;;;;;6248190;22;20373;-72
2021/03/07 05:03:18;;;;;;;20.47;18.37;;;;;;;;;;6276287;22;20379;-71
2021/03/07 05:05:44;;;;;;;22.58;19.20;;;;;;;;;;6250432;22;20455;-72
2021/03/07 05:08:10;;;;;;;21.00;18.80;;;;;;;;;;6277193;22;20363;-71
2021/03/07 05:10:37;;;;;;;19.75;17.52;;;;;;;;;;6277086;22;20439;-71
2021/03/07 05:13:03;;;;;;;18.73;16.83;;;;;;;;;;6277277;22;20352;-71
2021/03/07 05:15:30;;;;;;;20.70;18.30;;;;;;;;;;6277170;22;20352;-72
2021/03/07 05:17:56;;;;;;;21.40;19.15;;;;;;;;;;6250097;22;20368;-72
2021/03/07 05:20:22;;;;;;;21.08;18.85;;;;;;;;;;6277275;22;20356;-71
2021/03/07 05:22:48;;;;;;;20.83;17.45;;;;;;;;;;6276946;22;20832;-72
2021/03/07 05:25:15;;;;;;;18.08;16.17;;;;;;;;;;6277059;22;20360;-71
2021/03/07 05:27:41;;;;;;;17.75;15.85;;;6.40;99.90;;;;;;6276899;22;20409;-71
2021/03/07 05:30:07;;;;;;;17.38;15.52;;;5.60;99.90;;;;;;6277032;22;20431;-72
2021/03/07 05:32:34;;;;;;;16.73;14.68;;;5.60;99.90;;;;;;6276854;22;20772;-71
2021/03/07 05:35:00;;;;;;;18.75;16.75;;;5.60;99.90;;;;;;6276765;22;20364;-71
2021/03/07 05:37:26;;;;;;;17.92;16.02;;;;;;;;;;6277221;22;20387;-72
2021/03/07 05:39:52;;;;;;;16.52;14.82;;;;;;;;;;6276798;22;20353;-72
2021/03/07 05:42:19;;;;;;;17.00;14.70;;;;;;;;;;6276734;22;20357;-71
2021/03/07 05:44:45;;;;;;;17.08;15.27;;;;;;;;;;6276472;22;20828;-71
2021/03/07 05:47:11;;;;;;;15.80;14.15;;;;;;;;;;6276776;22;20363;-72
2021/03/07 05:49:40;;;;;;;17.70;15.77;;;;;;;;;;6276842;22;20356;-72
2021/03/07 05:52:07;;;;;;;16.55;14.82;;;;;;;;;;6276751;22;20361;-71
2021/03/07 05:54:33;;;;;;;15.73;14.13;;;;;;;;;;6249685;22;20364;-72
2021/03/07 05:57:00;;;;;;;17.02;14.88;;;;;;;;;;6276720;22;20425;-71
2021/03/07 05:59:27;;;;;;;16.63;14.83;;;;;;;;;;6276790;22;20356;-72
2021/03/07 06:01:53;;;;;;;16.57;14.47;;;;;;;;;;6276558;22;20691;-72
2021/03/07 06:04:19;;;;;;;15.20;13.60;;;;;;;;;;6249118;22;20429;-71
2021/03/07 06:06:46;;;;;;;15.85;14.18;;;;;;;;;;6276433;22;20410;-71
2021/03/07 06:09:15;;;;;;;16.55;14.60;;;;;;;;;;6276606;22;20731;-72
2021/03/07 06:11:41;;;;;;;15.27;13.68;;;;;;;;;;6249611;22;20365;-72
2021/03/07 06:14:16;;;;;;;15.57;13.98;;;;;;;;;;6276249;22;20355;-71
2021/03/07 06:17:04;;;;;;;19.40;17.40;;;5.60;99.90;;;;;;6249498;22;20445;-72
2021/03/07 06:19:30;;;;;;;20.47;18.27;;;;;;;;;;6276543;22;20359;-71
2021/03/07 06:22:11;;;;;;;20.80;18.23;;;;;;;;;;6276678;22;20748;-72
2021/03/07 06:24:38;;;;;;;17.50;15.33;;;;;;;;;;6249297;22;20440;-72
2021/03/07 06:27:05;;;;;;;19.05;17.08;;;;;;;;;;6276498;22;20356;-72
2021/03/07 06:29:32;;;;;;;17.08;15.38;;;;;;;;;;6276277;22;20900;-72
2021/03/07 06:31:58;;;;;;;16.42;14.73;;;;;;;;;;6249154;22;20403;-72
2021/03/07 06:34:24;;;;;;;16.20;14.50;;;;;;;;;;6276322;22;20813;-71
2021/03/07 06:37:01;;;;;;;16.50;14.75;;;;;;;;;;6276413;22;20356;-72
2021/03/07 06:39:28;;;;;;;19.53;16.70;;;;;;;;;;6276393;22;20784;-72
2021/03/07 06:42:00;;;;;;;17.03;15.23;;;;;;;;;;6276418;22;20426;-72
2021/03/07 06:44:26;;;;;;;16.60;14.85;;;;;;;;;;6276300;22;20824;-72
2021/03/07 06:46:52;;;;;;;18.88;16.85;;;;;;;;;;6276085;22;20360;-72
2021/03/07 06:49:22;;;;;;;18.85;16.83;;;;;;;;;;6276177;22;20356;-72
2021/03/07 06:51:48;;;;;;;19.70;16.90;;;;;;;;;;6276119;22;20387;-72
2021/03/07 06:54:15;;;;;;;17.08;15.27;;;;;;;;;;6276363;22;20356;-72
2021/03/07 06:56:43;;;;;;;17.17;15.37;;;;;;;;;;6275946;22;20490;-71
2021/03/07 06:59:13;;;;;;;17.83;15.93;;;;;;;;;;6276132;22;20367;-72
2021/03/07 07:01:40;;;;;;;17.23;15.43;;;;;;;;;;6275868;22;20371;-71
2021/03/07 07:04:07;;;;;;;18.83;16.10;;;;;;;;;;6275708;22;20479;-71
2021/03/07 07:06:33;;;;;;;16.83;15.10;;;;;;;;;;6249083;22;20368;-72
2021/03/07 07:09:00;;;;;;;17.73;15.75;;;;;;;;;;6248649;22;20364;-71
2021/03/07 07:11:26;;;;;;;18.73;16.67;;;;;;;;;;6276143;22;20395;-71
2021/03/07 07:13:53;;;;;;;18.38;16.48;;;;;;;;;;6248791;22;20375;-71
2021/03/07 07:16:21;;;;;;;18.45;16.45;;;;;;;;;;6275911;22;20723;-72
2021/03/07 07:18:49;;;;;;;17.50;15.70;;;;;;;;;;6276077;22;20380;-72
2021/03/07 07:21:16;;;;;;;18.45;16.40;;;;;;;;;;6248719;22;20372;-71
2021/03/07 07:23:42;;;;;;;19.15;17.15;;;;;;;;;;6275905;22;20376;-71
2021/03/07 07:26:09;;;;;;;17.80;15.90;;;;;;;;;;6275420;22;20352;-72
2021/03/07 07:28:35;;;;;;;17.30;15.50;;;;;;;;;;6275913;22;20379;-72
2021/03/07 07:31:05;;;;;;;17.65;15.75;;;;;;;;;;6275613;22;20360;-71
2021/03/07 07:33:38;;;;;;;18.40;16.50;;;;;;;;;;6275890;22;20440;-71
2021/03/07 07:36:05;;;;;;;19.92;17.10;;;;;;;;;;6275909;22;20372;-71
2021/03/07 07:38:32;;;;;;;21.48;18.23;;;;;;;;;;6248625;22;20372;-71
2021/03/07 07:40:58;;;;;;;21.45;18.73;;;;;;;;;;6275781;22;20678;-71
2021/03/07 07:43:25;;;;;;;21.30;19.05;;;;;;;;;;6275465;22;20376;-72
2021/03/07 07:46:06;;;;;;;19.98;17.88;;;;;;;;;;6275312;22;20357;-71
2021/03/07 07:48:34;;;;;;;18.83;16.75;;;;;;;;;;6274579;22;20356;-71
2021/03/07 07:51:20;;;;;;;18.15;15.57;;;;;;;;;;6275267;22;20360;-71
2021/03/07 07:53:46;;;;;;;16.42;13.88;;;;;;;;;;6274957;22;20348;-71
2021/03/07 07:56:32;;;;;;;16.47;14.77;;;;;;;;;;6275204;22;20445;-71
2021/03/07 07:58:58;;;;;;;16.83;14.75;;;;;;;;;;6275269;22;20823;-72
2021/03/07 08:01:47;;;;;;;17.48;14.45;;;;;;;;;;6275162;22;20406;-71
2021/03/07 08:04:44;;;;;;;17.27;14.90;;;;;;;;;;6274574;22;20844;-71
2021/03/07 08:07:12;;;;;;;18.27;16.23;;;;;;;;;;6122082;23;20395;-71
2021/03/07 08:09:42;;;;;;;17.92;15.57;;;;;;;;;;6240949;22;20386;-71
2021/03/07 08:12:26;;;;;;;18.00;15.90;;;;;;;;;;6275397;22;20677;-71
2021/03/07 08:14:53;;;;;;;18.05;16.15;;;;;;;;;;6275410;22;20340;-72
2021/03/07 08:17:37;;;;;;;17.45;15.15;;;;;;;;;;6275338;22;20388;-72
2021/03/07 08:20:04;;;;;;;16.48;13.77;;;;;;;;;;6275198;22;20402;-71
2021/03/07 08:22:57;;;;;;;16.17;14.30;;;;;;;;;;6247443;22;20670;-69
2021/03/07 08:25:23;;;;;;;17.63;15.48;;;;;;;;;;6274900;22;20685;-71
2021/03/07 08:27:50;;;;;;;14.60;13.05;;;;;;;;;;6274874;22;20357;-71
2021/03/07 08:30:17;;;;;;;16.10;14.00;;;;;;;;;;6275154;22;20824;-71
2021/03/07 08:32:44;;;;;;;15.95;13.82;;;;;;;;;;6248027;22;20681;-70
2021/03/07 08:35:14;;;;;;;17.50;13.70;;;;;;;;;;6275228;22;20364;-71
2021/03/07 08:37:42;;;;;;;14.70;13.15;;;;;;;;;;6247709;22;20368;-71
2021/03/07 08:40:28;;;;;;;16.35;13.82;;;;;;;;;;6247674;22;20375;-70
2021/03/07 08:42:54;;;;;;;14.73;13.13;;;;;;;;;;6274859;22;20383;-71
2021/03/07 08:45:21;;;;;;;16.17;13.38;;;;;;;;;;6248143;22;20410;-71
2021/03/07 08:47:54;;;;;;;14.55;12.93;;;;;;;;;;6275263;22;20684;-71
2021/03/07 08:50:21;;;;;;;16.10;14.20;;;;;;;;;;6274843;22;20352;-70
2021/03/07 08:52:48;;;;;;;16.33;14.50;;;;;;;;;;6275018;22;20792;-71
2021/03/07 08:55:15;;;;;;;16.25;14.45;;;;;;;;;;6248134;22;20368;-71
2021/03/07 08:57:44;;;;;;;20.67;15.27;;;;;;;;;;6247954;22;20360;-71
2021/03/07 09:00:11;;;;;;;17.55;14.35;;;;;;;;;;6274568;22;20356;-71
2021/03/07 09:02:38;;;;;;;16.88;13.88;;;;;;;;;;6246268;22;20356;-71
2021/03/07 09:05:05;;;;;;;15.80;13.68;;;;;;;;;;6273690;22;20421;-71
2021/03/07 09:07:31;;;;;;;16.42;14.68;;;;;;;;;;6246963;22;20371;-71
2021/03/07 09:09:58;;;;;;;18.80;14.27;;;;;;;;;;6274373;22;20410;-71
2021/03/07 09:12:26;;;;;;;16.15;13.15;;;;;;;;;;6273112;22;20745;-71
2021/03/07 09:14:52;;;;;;;16.33;14.07;;;;;;;;;;6274303;22;20692;-71
2021/03/07 09:17:19;;;;;;;16.33;14.32;;;;;;;;;;6247668;22;20372;-71
2021/03/07 09:19:46;;;;;;;24.30;20.67;;;;;;;;;;6247575;22;20367;-71
2021/03/07 09:22:17;;;;;;;17.58;14.25;;;;;;;;;;6274220;22;20363;-71
2021/03/07 09:24:51;;;;;;;16.70;13.75;;;;;;;;;;6273823;22;20376;-71
2021/03/07 09:27:18;;;;;;;14.83;13.33;;;8.70;99.90;;;;;;6274143;22;20824;-71
2021/03/07 09:30:07;;;;;;;15.18;12.73;;;;;;;;;;6274100;22;20677;-71
2021/03/07 09:32:35;;;;;;;14.30;12.85;;;;;;;;;;6247220;22;20444;-71
2021/03/07 09:35:15;;;;;;;14.07;12.57;;;9.10;99.90;;;;;;6274685;22;20418;-71
2021/03/07 09:37:41;;;;;;;14.05;12.65;;;9.50;95.40;;;;;;6274638;22;20676;-71
2021/03/07 09:40:10;;;;;;;15.35;13.75;;;9.60;95.40;;;;;;6274650;22;20406;-71
2021/03/07 09:42:39;;;;;;;16.33;13.57;;;9.20;95.90;;;;;;6274869;22;20387;-71
2021/03/07 09:45:11;;;;;;;16.58;13.55;;;9.10;96.10;;;;;;6247841;22;20407;-71
2021/03/07 09:47:38;;;;;;;15.82;13.63;;;9.20;95.40;;;;;;6273407;22;20400;-71
2021/03/07 09:50:05;;;;;;;14.05;12.38;;;;;;;;;;6276696;22;20384;-71
2021/03/07 09:52:31;;;;;;;15.18;13.57;;;;;;;;;;6276857;22;20843;-71
2021/03/07 09:54:57;;;;;;;15.68;13.23;;;8.80;95.90;;;;;;6276269;22;20387;-71
2021/03/07 09:57:23;;;;;;;15.80;13.57;;;9.70;95.00;;;;;;6275491;22;20426;-70
2021/03/07 09:59:52;;;;;;;14.73;12.93;;;;;;;;;;6275295;22;20352;-70
2021/03/07 10:02:19;;;;;;;15.30;13.70;;;10.20;94.70;;;;;;6275874;22;20369;-71
2021/03/07 10:04:46;;;;;;;14.43;13.00;;;10.20;94.40;;;;;;6275700;22;20926;-70
2021/03/07 10:07:25;;;;;;;16.33;13.57;;;9.40;94.70;;;;;;6249352;22;20442;-70
2021/03/07 10:09:58;;;;;;;14.30;12.88;;;9.60;95.40;;;;;;6271390;22;20375;-70
2021/03/07 10:12:24;;;;;;;14.68;13.07;;;10.30;97.70;;;;;;6274930;22;20384;-70
2021/03/07 10:14:53;;;;;;;14.95;13.38;;;10.20;93.70;;;;;;6274121;22;20352;-70
2021/03/07 10:17:20;;;;;;;15.85;14.10;;;10.10;94.20;;;;;;6274901;22;20345;-72
2021/03/07 10:19:46;;;;;;;17.25;14.48;;;9.80;95.00;;;;;;6275180;22;20356;-69
2021/03/07 10:22:12;;;;;;;15.57;13.93;;;;;;;;;;6272778;22;20703;-70
2021/03/07 10:24:39;;;;;;;16.33;14.60;;;;;;;;;;6274632;22;20467;-70
2021/03/07 10:27:06;;;;;;;16.85;13.75;;;;;;;;;;6274770;22;20439;-72
2021/03/07 10:29:33;;;;;;;16.33;14.65;;;;;;;;;;6274077;22;20367;-69
2021/03/07 10:32:05;;;;;;;18.65;14.50;;;;;;;;;;6247096;22;20370;-70
2021/03/07 10:34:31;;;;;;;16.58;14.60;;;;;;;;;;6273350;22;20357;-70
2021/03/07 10:36:58;;;;;;;18.13;14.98;;;9.60;95.40;;;;;;6248189;22;20373;-70
2021/03/07 10:39:24;;;;;;;15.83;14.13;;;9.60;96.50;;;;;;6184036;23;20398;-72
2021/03/07 10:41:50;;;;;;;17.35;14.80;;;10.00;96.00;;;;;;6181926;23;20427;-69
2021/03/07 10:44:24;;;;;;;16.10;14.40;;;10.20;95.10;;;;;;6182955;23;20382;-70
2021/03/07 10:46:50;;;;;;;17.40;15.60;;;10.20;94.80;;;;;;6182365;23;20373;-70
2021/03/07 10:49:19;;;;;;;18.27;14.77;;;9.40;95.60;;;;;;6183603;23;20388;-72
2021/03/07 10:51:45;;;;;;;16.90;14.75;;;9.10;96.40;;;;;;6184002;23;20813;-70
2021/03/07 10:54:11;;;;;;;17.02;14.65;;;9.40;96.50;;;;;;6181571;23;20369;-69
2021/03/07 10:56:40;;;;;;;16.98;15.15;;;9.50;96.10;;;;;;6183820;23;20683;-69
2021/03/07 10:59:06;;;;;;;17.17;15.25;;;9.70;95.80;;;;;;6183630;23;20354;-69
2021/03/07 11:01:32;;;;;;;17.30;15.50;;;9.70;95.50;;;;;;6183935;23;20472;-70
2021/03/07 11:03:58;;;;;;;16.83;14.93;;;9.50;96.50;;;;;;6182690;23;20388;-70
2021/03/07 11:06:25;;;;;;;17.27;15.45;;;9.60;96.40;;;;;;6184001;23;20357;-70
2021/03/07 11:08:51;;;;;;;16.45;14.65;;;9.70;96.50;;;;;;6182773;23;20389;-68
2021/03/07 11:11:18;;;;;;;16.58;14.88;;;10.00;95.60;;;;;;6181725;23;20409;-69
2021/03/07 11:13:45;;;;;;;17.40;14.50;;;10.20;95.20;;;;;;6180319;23;20936;-72
2021/03/07 11:16:11;;;;;;;15.68;14.13;;;10.20;95.50;;;;;;6182206;23;20358;-69
2021/03/07 11:18:38;;;;;;;18.45;15.38;;;10.20;95.10;;;;;;6182082;23;20833;-69
2021/03/07 11:21:04;;;;;;;18.13;16.23;;;9.90;95.70;;;;;;6182539;23;20365;-69
2021/03/07 11:23:31;;;;;;;19.63;16.95;;;9.40;96.20;;;;;;6182214;23;20430;-69
2021/03/07 11:25:57;;;;;;;16.65;14.85;;;9.20;97.60;;;;;;6182771;23;20364;-70
2021/03/07 11:28:23;;;;;;;17.17;15.37;;;9.30;97.20;;;;;;6182363;23;20401;-70
2021/03/07 11:30:49;;;;;;;16.35;14.55;;;9.50;96.60;;;;;;6182604;23;20365;-70
2021/03/07 11:33:15;;;;;;;21.40;15.98;;;9.60;96.00;;;;;;6182164;23;20354;-70
2021/03/07 11:35:41;;;;;;;17.30;15.50;;;9.20;97.70;;;;;;6182459;23;20365;-71
2021/03/07 11:38:07;;;;;;;16.60;14.90;;;8.90;98.10;;;;;;6180665;23;20386;-70
2021/03/07 11:40:34;;;;;;;18.92;16.38;;;8.90;98.40;;;;;;6181013;23;20462;-70
2021/03/07 11:42:59;;;;;;;16.45;14.73;;;9.00;98.50;;;;;;6181135;23;20761;-70
2021/03/07 11:45:25;;;;;;;18.40;16.42;;;9.20;97.90;;;;;;6182594;23;20361;-70
2021/03/07 11:47:51;;;;;;;19.92;17.00;;;9.20;98.80;;;;;;6183447;23;20357;-71
2021/03/07 11:50:17;;;;;;;20.10;17.83;;;9.10;97.90;;;;;;6183311;23;20892;-70
2021/03/07 11:52:43;;;;;;;25.85;17.52;;;8.70;98.20;;;;;;6181885;23;20385;-70
2021/03/07 11:55:11;;;;;;;17.70;16.00;;;8.50;98.90;;;;;;6183140;23;20384;-70
2021/03/07 11:57:37;;;;;;;17.20;15.38;;;8.50;98.80;;;;;;6183522;23;20369;-70
2021/03/07 12:00:05;;;;;;;19.90;17.88;;;8.60;99.20;;;;;;6183036;23;20361;-69
2021/03/07 12:02:31;;;;;;;18.88;16.50;;;8.70;99.00;;;;;;6183179;23;20367;-70
2021/03/07 12:04:57;;;;;;;20.50;18.20;;;8.70;99.20;;;;;;6183163;23;20451;-70
2021/03/07 12:07:23;;;;;;;23.45;20.08;;;8.60;99.00;;;;;;6181879;23;20408;-70
2021/03/07 12:09:49;;;;;;;20.63;17.13;;;8.60;99.10;;;;;;6183217;23;20357;-70
2021/03/07 12:12:15;;;;;;;19.52;17.52;;;8.50;99.80;;;;;;6181209;23;20433;-69
2021/03/07 12:14:42;;;;;;;19.27;17.27;;;8.60;99.60;;;;;;6180492;23;20822;-69
2021/03/07 12:17:08;;;;;;;18.13;16.23;;;8.70;99.40;;;;;;6180653;23;20750;-70
2021/03/07 12:19:34;;;;;;;22.23;19.52;;;8.60;99.10;;;;;;6181518;23;20373;-70
2021/03/07 12:22:01;;;;;;;25.60;21.42;;;8.50;99.70;;;;;;6183620;23;20365;-71
2021/03/07 12:24:29;;;;;;;18.55;15.55;;;8.50;99.60;;;;;;6181977;23;20992;-70
2021/03/07 12:26:55;;;;;;;18.55;15.02;;;8.60;99.30;;;;;;6183848;23;20825;-70
2021/03/07 12:29:21;;;;;;;18.00;15.47;;;8.80;99.00;;;;;;6182613;23;20837;-70
2021/03/07 12:31:48;;;;;;;15.98;14.27;;;9.00;98.60;;;;;;6181621;23;20431;-71
2021/03/07 12:34:14;;;;;;;78.68;54.45;;;9.20;98.20;;;;;;6181764;23;20400;-70
2021/03/07 12:36:40;;;;;;;24.25;20.40;;;8.90;97.80;;;;;;6183773;23;20357;-70
2021/03/07 12:39:06;;;;;;;16.42;14.57;;;8.80;98.90;;;;;;6181510;23;20379;-71
2021/03/07 12:41:32;;;;;;;39.77;28.43;;;8.80;98.50;;;;;;6182249;23;20377;-70
2021/03/07 12:43:58;;;;;;;43.00;29.92;;;8.70;98.50;;;;;;6183949;23;20381;-71
2021/03/07 12:46:24;;;;;;;19.70;17.65;;;8.70;99.00;;;;;;6183312;23;20362;-71
2021/03/07 12:48:50;;;;;;;17.25;15.18;;;8.60;98.80;;;;;;6181291;23;20441;-70
2021/03/07 12:51:16;;;;;;;22.20;17.90;;;8.60;98.10;;;;;;6182415;23;20455;-71
2021/03/07 12:53:42;;;;;;;19.65;15.80;;;8.70;98.30;;;;;;6183574;23;20856;-71
2021/03/07 12:56:08;;;;;;;15.83;14.23;;;8.70;98.30;;;;;;6183636;23;20361;-71
2021/03/07 12:58:34;;;;;;;14.77;13.23;;;8.70;98.40;;;;;;6183895;23;20357;-71
2021/03/07 13:01:00;;;;;;;18.75;15.07;;;8.90;97.90;;;;;;6183525;23;20361;-70
2021/03/07 13:03:25;;;;;;;15.75;14.05;;;9.00;97.50;;;;;;6181328;23;20394;-71
2021/03/07 13:05:55;;;;;;;17.88;14.32;;;9.20;97.20;;;;;;6183307;23;20353;-71
2021/03/07 13:08:21;;;;;;;16.10;14.40;;;9.30;96.80;;;;;;6183034;23;20859;-71
2021/03/07 13:10:47;;;;;;;15.82;14.13;;;9.20;97.40;;;;;;6182396;23;20834;-71
2021/03/07 13:13:15;;;;;;;16.63;14.83;;;9.30;96.50;;;;;;6182946;23;20392;-71
2021/03/07 13:15:41;;;;;;;16.27;14.05;;;9.20;96.30;;;;;;6156859;23;20710;-70
2021/03/07 13:18:08;;;;;;;15.68;14.00;;;8.90;96.90;;;;;;6182192;23;20358;-69
2021/03/07 13:20:34;;;;;;;14.70;12.82;;;9.00;96.70;;;;;;6182837;23;20365;-71
2021/03/07 13:23:01;;;;;;;15.07;13.50;;;9.00;96.90;;;;;;6183788;23;20393;-71
2021/03/07 13:25:27;;;;;;;15.50;13.82;;;9.20;96.70;;;;;;6159417;23;20377;-71
2021/03/07 13:27:53;;;;;;;15.00;13.40;;;9.50;96.00;;;;;;6185185;23;20357;-71
2021/03/07 13:30:21;;;;;;;32.30;23.92;;;9.40;95.20;;;;;;6185906;23;20357;-71
2021/03/07 13:32:47;;;;;;;17.88;14.93;;;9.50;95.50;;;;;;6185019;23;20364;-71
2021/03/07 13:35:15;;;;;;;15.10;13.50;;;9.50;95.70;;;;;;6159227;23;20786;-71
2021/03/07 13:37:41;;;;;;;14.32;12.82;;;9.60;95.40;;;;;;6185392;23;20361;-71
2021/03/07 13:40:09;;;;;;;15.25;13.65;;;9.60;95.20;;;;;;6185779;23;20663;-71
2021/03/07 13:42:35;;;;;;;14.70;13.07;;;9.70;95.20;;;;;;6183832;23;20426;-71
2021/03/07 13:45:01;;;;;;;17.77;15.27;;;9.70;95.00;;;;;;6184486;23;20756;-71
2021/03/07 13:47:27;;;;;;;17.63;15.20;;;9.60;95.10;;;;;;6185514;23;20365;-72